Terminal Aerodrome Forecast
Issued by NWS

Home | Current Version | Previous Version | Text Only | Print | Product List | Glossary On
Versions: 1 2 3 4 5 6 7 8 9 10 11 12 13 14
000
FTUS46 KMTR 281600 AAA
TAFSTS
TAF AMD
KSTS 281649Z 2817/2912 15006KT P6SM OVC005
     FM281730 00000KT P6SM SCT006
     FM281800 17010KT P6SM SKC
     FM290700 16004KT P6SM OVC007=

USA.gov is the U.S. government's official web portal to all federal, state and local government web resources and services.